createdAt,value
2018-04-27T00:04:37.537Z,101306.09
2018-04-27T00:09:28.562Z,101290.66
2018-04-27T00:14:20.350Z,101295.43
2018-04-27T00:19:11.366Z,101291.83
2018-04-27T00:24:02.392Z,101285.28
2018-04-27T00:28:53.421Z,101285.48
2018-04-27T00:33:44.453Z,101289.66
2018-04-27T00:38:35.523Z,101296.27
2018-04-27T00:43:27.324Z,101294.52
2018-04-27T00:48:18.326Z,101292.04
2018-04-27T00:53:13.383Z,101291.84
2018-04-27T00:58:04.451Z,101290.59
2018-04-27T01:02:56.249Z,101288.02
2018-04-27T01:07:47.317Z,101284.09
2018-04-27T01:12:39.072Z,101286.05
2018-04-27T01:17:30.116Z,101288.34
2018-04-27T01:22:21.245Z,101283.80
2018-04-27T01:27:12.349Z,101289.47
2018-04-27T01:32:03.336Z,101291.13
2018-04-27T01:36:55.100Z,101291.75
2018-04-27T01:41:46.894Z,101292.97
2018-04-27T01:46:37.925Z,101301.97
2018-04-27T01:51:28.957Z,101299.79
2018-04-27T01:56:20.009Z,101296.41
2018-04-27T02:01:11.027Z,101296.49
2018-04-27T02:06:02.814Z,101304.20
2018-04-27T02:10:53.820Z,101295.39
2018-04-27T02:15:44.934Z,101292.90
2018-04-27T02:20:36.021Z,101288.91
2018-04-27T02:25:27.774Z,101289.84
2018-04-27T02:30:19.539Z,101297.52
2018-04-27T02:35:10.625Z,101300.28
2018-04-27T02:40:02.518Z,101296.87
2018-04-27T02:44:53.539Z,101294.97
2018-04-27T02:49:44.691Z,101293.33
2018-04-27T02:54:35.767Z,101288.20
2018-04-27T02:59:26.774Z,101302.03
2018-04-27T03:04:18.555Z,101299.62
2018-04-27T03:09:09.593Z,101300.72
2018-04-27T03:14:00.612Z,101297.69
2018-04-27T03:18:51.629Z,101290.09
2018-04-27T03:23:42.678Z,101294.87
2018-04-27T03:28:33.710Z,101292.36
2018-04-27T03:33:24.706Z,101286.99
2018-04-27T03:38:15.714Z,101295.80
2018-04-27T03:43:06.940Z,101293.87
2018-04-27T03:47:57.960Z,101291.45
2018-04-27T03:52:48.987Z,101294.16
2018-04-27T03:57:40.018Z,101290.03
2018-04-27T04:02:49.770Z,101286.99
2018-04-27T04:07:40.792Z,101286.99
2018-04-27T04:12:31.833Z,101292.03
2018-04-27T04:17:22.843Z,101294.14
2018-04-27T04:22:13.910Z,101304.06
2018-04-27T04:27:05.085Z,101307.20
2018-04-27T04:31:56.097Z,101315.39
2018-04-27T04:36:47.161Z,101309.17
2018-04-27T04:41:38.183Z,101314.02
2018-04-27T04:46:29.303Z,101315.27
2018-04-27T04:51:20.417Z,101317.25
2018-04-27T04:56:11.422Z,101319.35
2018-04-27T05:01:02.440Z,101322.44
2018-04-27T05:05:53.474Z,101320.02
2018-04-27T05:10:44.484Z,101326.75
2018-04-27T05:15:35.913Z,101322.72
2018-04-27T05:20:26.792Z,101327.12
2018-04-27T05:25:17.853Z,101337.70
2018-04-27T05:30:08.945Z,101349.83
2018-04-27T05:35:00.189Z,101343.78
2018-04-27T05:39:51.950Z,101351.04
2018-04-27T05:44:43.669Z,101348.30
2018-04-27T05:49:35.519Z,101349.16
2018-04-27T05:54:26.548Z,101338.45
2018-04-27T05:59:17.612Z,101342.39
2018-04-27T06:04:12.505Z,101335.81
2018-04-27T06:09:04.392Z,101335.91
2018-04-27T06:13:55.457Z,101332.62
2018-04-27T06:18:46.456Z,101329.86
2018-04-27T06:23:38.240Z,101334.64
2018-04-27T06:28:32.068Z,101336.39
2018-04-27T06:33:23.188Z,101327.80
2018-04-27T06:38:14.294Z,101325.72
2018-04-27T06:43:05.400Z,101321.69
2018-04-27T06:47:56.461Z,101313.30
2018-04-27T06:52:47.602Z,101314.84
2018-04-27T06:57:38.707Z,101310.19
2018-04-27T07:02:29.793Z,101316.94
2018-04-27T07:07:20.938Z,101311.55
2018-04-27T07:12:11.953Z,101308.72
2018-04-27T07:17:03.158Z,101308.67
2018-04-27T07:21:54.865Z,101313.21
2018-04-27T07:26:45.864Z,101308.18
2018-04-27T07:31:37.013Z,101314.55
2018-04-27T07:36:28.061Z,101308.41
2018-04-27T07:41:19.077Z,101302.36
2018-04-27T07:46:10.845Z,101299.03
2018-04-27T07:51:01.868Z,101295.53
2018-04-27T07:55:52.921Z,101292.84
2018-04-27T08:00:43.949Z,101292.71
2018-04-27T08:05:35.019Z,101288.72
2018-04-27T08:10:26.088Z,101282.50
2018-04-27T08:15:17.109Z,101283.45
2018-04-27T08:20:08.110Z,101282.75
2018-04-27T08:24:59.191Z,101284.38
2018-04-27T08:29:50.992Z,101277.61
2018-04-27T08:34:42.157Z,101277.19
2018-04-27T08:39:33.157Z,101278.69
2018-04-27T08:44:24.212Z,101273.20
2018-04-27T08:49:15.476Z,101277.00
2018-04-27T08:54:06.483Z,101272.69
2018-04-27T08:58:57.475Z,101270.63
2018-04-27T09:03:48.497Z,101267.33
2018-04-27T09:08:39.555Z,101264.92
2018-04-27T09:13:30.628Z,101261.16
2018-04-27T09:18:21.633Z,101255.62
2018-04-27T09:23:12.639Z,101256.41
2018-04-27T09:28:03.664Z,101257.49
2018-04-27T09:32:54.768Z,101244.88
2018-04-27T09:37:46.543Z,101247.61
2018-04-27T09:42:37.576Z,101243.11
2018-04-27T09:47:28.576Z,101242.98
2018-04-27T09:52:19.609Z,101222.59
2018-04-27T09:57:10.730Z,101230.28
2018-04-27T10:02:01.811Z,101226.48
2018-04-27T10:06:53.589Z,101219.19
2018-04-27T10:11:44.846Z,101208.28
2018-04-27T10:16:35.876Z,101205.31
2018-04-27T10:21:26.874Z,101196.83
2018-04-27T10:26:19.918Z,101188.78
2018-04-27T10:31:10.953Z,101182.11
2018-04-27T10:36:01.963Z,101178.95
2018-04-27T10:40:52.978Z,101169.93
2018-04-27T10:45:43.986Z,101165.89
2018-04-27T10:50:35.852Z,101157.52
2018-04-27T10:55:26.841Z,101149.13
2018-04-27T11:00:18.595Z,101150.64
2018-04-27T11:05:09.676Z,101143.69
2018-04-27T11:10:00.994Z,101130.06
2018-04-27T11:14:52.009Z,101119.88
2018-04-27T11:19:43.234Z,101105.97
2018-04-27T11:24:34.249Z,101097.64
2018-04-27T11:29:25.355Z,101101.27
2018-04-27T11:34:17.091Z,101100.55
2018-04-27T11:39:08.882Z,101098.59
2018-04-27T11:43:59.961Z,101093.01
2018-04-27T11:48:51.695Z,101084.50
2018-04-27T11:53:43.497Z,101083.20
2018-04-27T11:58:34.551Z,101072.41
2018-04-27T12:03:26.311Z,101074.68
2018-04-27T12:08:17.311Z,101068.55
2018-04-27T12:13:09.076Z,101066.51
2018-04-27T12:18:00.229Z,101064.53
2018-04-27T12:22:51.437Z,101065.50
2018-04-27T12:27:42.436Z,101057.47
2018-04-27T12:32:34.184Z,101058.36
2018-04-27T12:37:25.303Z,101042.00
2018-04-27T12:42:17.131Z,101037.24
2018-04-27T12:47:08.929Z,101024.88
2018-04-27T12:52:00.020Z,101030.16
2018-04-27T12:56:51.496Z,101022.55
2018-04-27T13:01:42.501Z,101026.47
2018-04-27T13:06:33.513Z,101018.86
2018-04-27T13:11:24.551Z,101014.00
2018-04-27T13:16:15.755Z,101004.19
2018-04-27T13:21:06.782Z,100998.58
2018-04-27T13:25:57.805Z,101000.08
2018-04-27T13:30:48.848Z,101005.12
2018-04-27T13:35:39.939Z,100998.78
2018-04-27T13:40:30.993Z,100995.63
2018-04-27T13:45:22.001Z,100984.60
2018-04-27T13:50:13.004Z,100976.66
2018-04-27T13:55:04.761Z,100981.03
2018-04-27T13:59:55.820Z,100969.98
2018-04-27T14:04:46.890Z,100963.63
2018-04-27T14:09:38.725Z,100965.08
2018-04-27T14:14:32.295Z,100948.86
2018-04-27T14:19:24.080Z,100955.20
2018-04-27T14:24:15.133Z,100951.11
2018-04-27T14:29:06.140Z,100951.63
2018-04-27T14:33:57.201Z,100946.48
2018-04-27T14:38:48.345Z,100933.11
2018-04-27T14:43:40.335Z,100914.33
2018-04-27T14:48:31.385Z,100926.43
2018-04-27T14:53:22.384Z,100924.42
2018-04-27T14:58:13.401Z,100899.88
2018-04-27T15:03:04.441Z,100897.34
2018-04-27T15:07:55.653Z,100907.52
2018-04-27T15:12:46.658Z,100914.66
2018-04-27T15:17:37.665Z,100905.34
2018-04-27T15:22:29.434Z,100908.57
2018-04-27T15:27:20.513Z,100904.70
2018-04-27T15:32:12.320Z,100889.71
2018-04-27T15:37:03.315Z,100895.84
2018-04-27T15:41:54.381Z,100887.11
2018-04-27T15:46:45.583Z,100872.20
2018-04-27T15:51:36.596Z,100865.66
2018-04-27T15:56:27.591Z,100872.11
2018-04-27T16:01:18.629Z,100863.25
2018-04-27T16:06:09.665Z,100856.15
2018-04-27T16:11:00.905Z,100854.20
2018-04-27T16:15:51.916Z,100842.52
2018-04-27T16:20:42.923Z,100831.28
2018-04-27T16:25:33.969Z,100829.38
2018-04-27T16:30:25.051Z,100824.59
2018-04-27T16:35:16.090Z,100812.58
2018-04-27T16:40:08.761Z,100812.06
2018-04-27T16:45:00.130Z,100811.30
2018-04-27T16:49:51.215Z,100806.30
2018-04-27T16:54:42.215Z,100809.03
2018-04-27T16:59:34.024Z,100807.48
2018-04-27T17:04:25.094Z,100807.13
2018-04-27T17:09:16.226Z,100807.95
2018-04-27T17:14:07.269Z,100804.45
2018-04-27T17:18:58.269Z,100799.28
2018-04-27T17:23:49.275Z,100806.36
2018-04-27T17:28:40.377Z,100799.95
2018-04-27T17:33:31.408Z,100790.28
2018-04-27T17:38:23.223Z,100794.64
2018-04-27T17:43:14.241Z,100788.38
2018-04-27T17:48:05.313Z,100777.65
2018-04-27T17:52:56.324Z,100790.15
2018-04-27T17:57:48.286Z,100784.59
2018-04-27T18:02:39.319Z,100777.81
2018-04-27T18:07:30.414Z,100784.79
2018-04-27T18:12:22.208Z,100779.20
2018-04-27T18:17:13.225Z,100776.66
2018-04-27T18:22:04.258Z,100780.61
2018-04-27T18:26:55.453Z,100786.99
2018-04-27T18:31:46.496Z,100783.44
2018-04-27T18:36:37.556Z,100775.70
2018-04-27T18:41:35.691Z,100776.50
2018-04-27T18:46:26.731Z,100778.81
2018-04-27T18:51:18.776Z,100777.71
2018-04-27T18:56:09.911Z,100791.30
2018-04-27T19:01:01.019Z,100790.30
2018-04-27T19:05:52.096Z,100791.12
2018-04-27T19:10:44.001Z,100791.89
2018-04-27T19:15:35.075Z,100801.73
2018-04-27T19:20:26.860Z,100795.05
2018-04-27T19:25:17.869Z,100792.81
2018-04-27T19:30:08.997Z,100788.56
2018-04-27T19:35:00.027Z,100788.02
2018-04-27T19:39:51.038Z,100786.59
2018-04-27T19:44:42.143Z,100785.70
2018-04-27T19:49:33.199Z,100780.99
2018-04-27T19:54:24.308Z,100768.84
2018-04-27T19:59:15.304Z,100768.06
2018-04-27T20:04:07.072Z,100767.80
2018-04-27T20:08:58.081Z,100764.75
2018-04-27T20:13:49.200Z,100763.63
2018-04-27T20:18:40.582Z,100766.03
2018-04-27T20:23:34.740Z,100762.69
2018-04-27T20:28:27.630Z,100757.28
2018-04-27T20:33:19.635Z,100757.19
2018-04-27T20:38:18.725Z,100749.11
2018-04-27T20:43:10.553Z,100743.91
2018-04-27T20:48:01.580Z,100740.00
2018-04-27T20:52:52.705Z,100736.19
2018-04-27T20:57:44.485Z,100733.95
2018-04-27T21:02:35.537Z,100728.34
2018-04-27T21:07:26.553Z,100726.22
2018-04-27T21:12:17.584Z,100723.61
2018-04-27T21:17:08.572Z,100722.19
2018-04-27T21:21:59.612Z,100716.16
2018-04-27T21:26:50.661Z,100705.63
2018-04-27T21:31:41.655Z,100695.05
2018-04-27T21:36:32.752Z,100698.09
2018-04-27T21:47:01.881Z,100688.66
2018-04-27T21:51:53.690Z,100683.63
2018-04-27T21:57:07.673Z,100674.80
2018-04-27T22:01:58.660Z,100673.94
2018-04-27T22:06:49.657Z,100665.00
2018-04-27T22:11:46.420Z,100672.55
2018-04-27T22:16:40.400Z,100677.02
2018-04-27T22:21:32.489Z,100668.61
2018-04-27T22:26:23.502Z,100672.88
2018-04-27T22:31:14.506Z,100667.70
2018-04-27T22:41:27.351Z,100651.80
2018-04-27T22:46:19.115Z,100645.24
2018-04-27T22:51:17.911Z,100641.14
2018-04-27T22:56:15.937Z,100632.20
2018-04-27T23:01:07.697Z,100624.99
2018-04-27T23:05:58.693Z,100622.49
2018-04-27T23:10:57.702Z,100614.50
2018-04-27T23:15:52.536Z,100618.88
2018-04-27T23:20:53.420Z,100607.97
2018-04-27T23:25:45.298Z,100606.78
2018-04-27T23:30:36.493Z,100594.00
2018-04-27T23:35:28.228Z,100591.91
2018-04-27T23:40:20.865Z,100582.44
2018-04-27T23:45:11.843Z,100581.41
2018-04-27T23:50:02.841Z,100570.66
2018-04-27T23:54:54.565Z,100563.25
2018-04-27T23:59:46.406Z,100566.88
